sensor_id;sensor_type;location;lat;lon;timestamp;temperature;humidity
546;DHT22;259;53.304;9.816;2022-12-18T00:00:05;7.70;57.90
546;DHT22;259;53.304;9.816;2022-12-18T00:02:31;8.00;57.60
546;DHT22;259;53.304;9.816;2022-12-18T00:04:57;8.40;57.20
546;DHT22;259;53.304;9.816;2022-12-18T00:07:22;8.70;56.80
546;DHT22;259;53.304;9.816;2022-12-18T00:09:48;8.90;56.50
546;DHT22;259;53.304;9.816;2022-12-18T00:12:13;9.00;56.20
546;DHT22;259;53.304;9.816;2022-12-18T00:14:39;9.10;56.00
546;DHT22;259;53.304;9.816;2022-12-18T00:17:04;9.20;55.80
546;DHT22;259;53.304;9.816;2022-12-18T00:19:30;9.20;56.20
546;DHT22;259;53.304;9.816;2022-12-18T00:21:55;9.20;55.60
546;DHT22;259;53.304;9.816;2022-12-18T00:24:21;9.20;55.60
546;DHT22;259;53.304;9.816;2022-12-18T00:26:46;9.20;55.70
546;DHT22;259;53.304;9.816;2022-12-18T00:29:13;9.20;55.70
546;DHT22;259;53.304;9.816;2022-12-18T00:31:42;9.10;55.60
546;DHT22;259;53.304;9.816;2022-12-18T00:34:10;9.10;55.70
546;DHT22;259;53.304;9.816;2022-12-18T00:36:36;9.00;55.70
546;DHT22;259;53.304;9.816;2022-12-18T00:39:04;9.00;55.80
546;DHT22;259;53.304;9.816;2022-12-18T00:41:30;8.90;55.90
546;DHT22;259;53.304;9.816;2022-12-18T00:44:16;8.80;55.90
546;DHT22;259;53.304;9.816;2022-12-18T00:46:42;8.80;56.00
546;DHT22;259;53.304;9.816;2022-12-18T00:49:08;8.70;56.00
546;DHT22;259;53.304;9.816;2022-12-18T00:51:34;8.60;56.10
546;DHT22;259;53.304;9.816;2022-12-18T00:54:00;8.50;56.20
546;DHT22;259;53.304;9.816;2022-12-18T00:56:25;8.50;56.30
546;DHT22;259;53.304;9.816;2022-12-18T00:58:51;8.40;56.30
546;DHT22;259;53.304;9.816;2022-12-18T01:01:17;8.30;56.40
546;DHT22;259;53.304;9.816;2022-12-18T01:03:42;8.30;56.40
546;DHT22;259;53.304;9.816;2022-12-18T01:06:12;8.20;56.50
546;DHT22;259;53.304;9.816;2022-12-18T01:08:38;8.20;56.60
546;DHT22;259;53.304;9.816;2022-12-18T01:11:12;8.10;56.60
546;DHT22;259;53.304;9.816;2022-12-18T01:13:39;8.00;56.60
546;DHT22;259;53.304;9.816;2022-12-18T01:16:05;8.00;56.70
546;DHT22;259;53.304;9.816;2022-12-18T01:18:31;7.90;56.70
546;DHT22;259;53.304;9.816;2022-12-18T01:20:56;7.90;56.80
546;DHT22;259;53.304;9.816;2022-12-18T01:23:22;7.90;56.90
546;DHT22;259;53.304;9.816;2022-12-18T01:25:47;7.80;57.00
546;DHT22;259;53.304;9.816;2022-12-18T01:28:13;7.70;57.10
546;DHT22;259;53.304;9.816;2022-12-18T01:30:38;7.70;57.20
546;DHT22;259;53.304;9.816;2022-12-18T01:33:04;7.60;57.20
546;DHT22;259;53.304;9.816;2022-12-18T01:35:30;7.60;57.40
546;DHT22;259;53.304;9.816;2022-12-18T01:37:56;7.50;57.40
546;DHT22;259;53.304;9.816;2022-12-18T01:40:22;7.50;57.40
546;DHT22;259;53.304;9.816;2022-12-18T01:42:52;7.50;57.50
546;DHT22;259;53.304;9.816;2022-12-18T01:45:25;7.40;57.70
546;DHT22;259;53.304;9.816;2022-12-18T01:47:59;7.40;57.90
546;DHT22;259;53.304;9.816;2022-12-18T01:50:35;7.40;58.10
546;DHT22;259;53.304;9.816;2022-12-18T01:53:20;7.30;58.20
546;DHT22;259;53.304;9.816;2022-12-18T01:55:49;7.30;58.30
546;DHT22;259;53.304;9.816;2022-12-18T01:58:16;7.20;58.30
546;DHT22;259;53.304;9.816;2022-12-18T02:00:42;7.20;58.30
546;DHT22;259;53.304;9.816;2022-12-18T02:03:08;7.20;58.40
546;DHT22;259;53.304;9.816;2022-12-18T02:05:47;7.20;58.50
546;DHT22;259;53.304;9.816;2022-12-18T02:08:45;7.10;58.40
546;DHT22;259;53.304;9.816;2022-12-18T02:19:39;7.00;58.40
546;DHT22;259;53.304;9.816;2022-12-18T02:22:29;7.00;58.40
546;DHT22;259;53.304;9.816;2022-12-18T02:27:41;6.90;58.50
546;DHT22;259;53.304;9.816;2022-12-18T02:30:09;6.90;58.50
546;DHT22;259;53.304;9.816;2022-12-18T02:32:39;6.90;58.50
546;DHT22;259;53.304;9.816;2022-12-18T02:35:06;6.80;58.50
546;DHT22;259;53.304;9.816;2022-12-18T02:37:34;6.80;58.40
546;DHT22;259;53.304;9.816;2022-12-18T02:40:03;6.80;58.50
546;DHT22;259;53.304;9.816;2022-12-18T02:42:29;6.80;58.50
546;DHT22;259;53.304;9.816;2022-12-18T02:44:55;6.80;58.40
546;DHT22;259;53.304;9.816;2022-12-18T02:47:24;6.80;58.50
546;DHT22;259;53.304;9.816;2022-12-18T02:49:57;6.70;58.50
546;DHT22;259;53.304;9.816;2022-12-18T02:52:51;6.70;58.40
546;DHT22;259;53.304;9.816;2022-12-18T02:57:56;6.70;58.60
546;DHT22;259;53.304;9.816;2022-12-18T03:03:14;6.80;58.20
546;DHT22;259;53.304;9.816;2022-12-18T03:05:55;7.10;58.10
546;DHT22;259;53.304;9.816;2022-12-18T03:08:25;7.30;57.80
546;DHT22;259;53.304;9.816;2022-12-18T03:11:18;7.70;57.60
546;DHT22;259;53.304;9.816;2022-12-18T03:14:07;8.10;57.30
546;DHT22;259;53.304;9.816;2022-12-18T03:16:35;8.60;56.90
546;DHT22;259;53.304;9.816;2022-12-18T03:19:06;9.00;56.40
546;DHT22;259;53.304;9.816;2022-12-18T03:21:43;9.20;55.90
546;DHT22;259;53.304;9.816;2022-12-18T03:24:11;9.50;55.60
546;DHT22;259;53.304;9.816;2022-12-18T03:26:41;9.60;55.30
546;DHT22;259;53.304;9.816;2022-12-18T03:29:19;9.70;55.20
546;DHT22;259;53.304;9.816;2022-12-18T03:31:51;9.70;55.10
546;DHT22;259;53.304;9.816;2022-12-18T03:34:25;9.70;55.00
546;DHT22;259;53.304;9.816;2022-12-18T03:36:52;9.70;54.90
546;DHT22;259;53.304;9.816;2022-12-18T03:39:18;9.70;54.90
546;DHT22;259;53.304;9.816;2022-12-18T03:41:51;9.70;54.90
546;DHT22;259;53.304;9.816;2022-12-18T03:49:34;9.50;55.00
546;DHT22;259;53.304;9.816;2022-12-18T03:52:10;9.40;55.10
546;DHT22;259;53.304;9.816;2022-12-18T03:54:39;9.30;55.10
546;DHT22;259;53.304;9.816;2022-12-18T03:57:10;9.20;55.20
546;DHT22;259;53.304;9.816;2022-12-18T03:59:38;9.20;55.30
546;DHT22;259;53.304;9.816;2022-12-18T04:02:06;9.10;55.40
546;DHT22;259;53.304;9.816;2022-12-18T04:04:34;9.00;55.50
546;DHT22;259;53.304;9.816;2022-12-18T04:07:01;8.90;55.60
546;DHT22;259;53.304;9.816;2022-12-18T04:09:28;8.80;55.70
546;DHT22;259;53.304;9.816;2022-12-18T04:11:55;8.70;55.80
546;DHT22;259;53.304;9.816;2022-12-18T04:14:20;8.70;55.80
546;DHT22;259;53.304;9.816;2022-12-18T04:16:46;8.60;55.90
546;DHT22;259;53.304;9.816;2022-12-18T04:19:12;8.50;55.90
546;DHT22;259;53.304;9.816;2022-12-18T04:21:37;8.50;56.00
546;DHT22;259;53.304;9.816;2022-12-18T04:24:03;8.40;56.10
546;DHT22;259;53.304;9.816;2022-12-18T04:26:28;8.30;56.10
546;DHT22;259;53.304;9.816;2022-12-18T04:28:54;8.30;56.20
546;DHT22;259;53.304;9.816;2022-12-18T04:31:20;8.20;56.30
546;DHT22;259;53.304;9.816;2022-12-18T04:33:45;8.10;56.70
546;DHT22;259;53.304;9.816;2022-12-18T04:36:11;8.10;56.50
546;DHT22;259;53.304;9.816;2022-12-18T04:38:37;8.00;56.50
546;DHT22;259;53.304;9.816;2022-12-18T04:41:03;7.90;56.60
546;DHT22;259;53.304;9.816;2022-12-18T04:43:28;7.90;56.70
546;DHT22;259;53.304;9.816;2022-12-18T04:46:02;7.80;56.80
546;DHT22;259;53.304;9.816;2022-12-18T04:48:27;7.70;56.80
546;DHT22;259;53.304;9.816;2022-12-18T04:50:53;7.70;57.00
546;DHT22;259;53.304;9.816;2022-12-18T04:53:18;7.70;57.10
546;DHT22;259;53.304;9.816;2022-12-18T04:55:44;7.60;57.10
546;DHT22;259;53.304;9.816;2022-12-18T04:58:09;7.60;57.30
546;DHT22;259;53.304;9.816;2022-12-18T05:00:35;7.50;57.40
546;DHT22;259;53.304;9.816;2022-12-18T05:03:01;7.50;57.60
546;DHT22;259;53.304;9.816;2022-12-18T05:05:27;7.50;57.80
546;DHT22;259;53.304;9.816;2022-12-18T05:07:53;7.50;58.00
546;DHT22;259;53.304;9.816;2022-12-18T05:10:18;7.40;58.00
546;DHT22;259;53.304;9.816;2022-12-18T05:12:44;7.30;58.10
546;DHT22;259;53.304;9.816;2022-12-18T05:15:29;7.30;58.10
546;DHT22;259;53.304;9.816;2022-12-18T05:17:56;7.30;58.10
546;DHT22;259;53.304;9.816;2022-12-18T05:20:22;7.20;58.10
546;DHT22;259;53.304;9.816;2022-12-18T05:22:48;7.10;58.10
546;DHT22;259;53.304;9.816;2022-12-18T05:25:14;7.20;58.30
546;DHT22;259;53.304;9.816;2022-12-18T05:27:40;7.10;58.20
546;DHT22;259;53.304;9.816;2022-12-18T05:30:06;7.50;58.50
546;DHT22;259;53.304;9.816;2022-12-18T05:32:32;7.10;58.30
546;DHT22;259;53.304;9.816;2022-12-18T05:34:57;7.00;58.20
546;DHT22;259;53.304;9.816;2022-12-18T05:37:23;7.00;58.30
546;DHT22;259;53.304;9.816;2022-12-18T05:39:48;7.00;58.30
546;DHT22;259;53.304;9.816;2022-12-18T05:42:14;6.90;58.20
546;DHT22;259;53.304;9.816;2022-12-18T05:44:39;6.90;58.30
546;DHT22;259;53.304;9.816;2022-12-18T05:47:05;6.90;58.40
546;DHT22;259;53.304;9.816;2022-12-18T05:49:31;6.90;58.40
546;DHT22;259;53.304;9.816;2022-12-18T05:51:57;6.90;58.40
546;DHT22;259;53.304;9.816;2022-12-18T05:54:22;6.90;58.40
546;DHT22;259;53.304;9.816;2022-12-18T05:56:48;6.80;58.30
546;DHT22;259;53.304;9.816;2022-12-18T05:59:13;6.80;58.40
546;DHT22;259;53.304;9.816;2022-12-18T06:01:39;7.40;58.50
546;DHT22;259;53.304;9.816;2022-12-18T06:04:05;7.00;58.00
546;DHT22;259;53.304;9.816;2022-12-18T06:06:31;7.20;57.80
546;DHT22;259;53.304;9.816;2022-12-18T06:08:57;7.50;57.60
546;DHT22;259;53.304;9.816;2022-12-18T06:11:25;8.40;57.70
546;DHT22;259;53.304;9.816;2022-12-18T06:13:53;8.50;57.20
546;DHT22;259;53.304;9.816;2022-12-18T06:16:19;8.80;56.90
546;DHT22;259;53.304;9.816;2022-12-18T06:18:44;9.30;56.40
546;DHT22;259;53.304;9.816;2022-12-18T06:21:10;9.80;55.90
546;DHT22;259;53.304;9.816;2022-12-18T06:23:36;10.60;55.00
546;DHT22;259;53.304;9.816;2022-12-18T06:26:10;10.50;54.20
546;DHT22;259;53.304;9.816;2022-12-18T06:28:36;10.80;53.90
546;DHT22;259;53.304;9.816;2022-12-18T06:31:03;11.10;53.60
546;DHT22;259;53.304;9.816;2022-12-18T06:33:29;11.30;53.30
546;DHT22;259;53.304;9.816;2022-12-18T06:36:00;11.60;53.10
546;DHT22;259;53.304;9.816;2022-12-18T06:38:26;12.10;53.20
546;DHT22;259;53.304;9.816;2022-12-18T06:40:52;12.00;52.70
546;DHT22;259;53.304;9.816;2022-12-18T06:43:17;12.40;52.70
546;DHT22;259;53.304;9.816;2022-12-18T06:45:43;12.30;52.40
546;DHT22;259;53.304;9.816;2022-12-18T06:48:08;12.70;52.40
546;DHT22;259;53.304;9.816;2022-12-18T06:50:34;12.90;52.20
546;DHT22;259;53.304;9.816;2022-12-18T06:53:03;13.00;52.00
546;DHT22;259;53.304;9.816;2022-12-18T06:55:28;13.00;51.60
546;DHT22;259;53.304;9.816;2022-12-18T06:57:54;13.30;52.20
546;DHT22;259;53.304;9.816;2022-12-18T07:00:19;13.40;51.50
546;DHT22;259;53.304;9.816;2022-12-18T07:02:45;13.50;51.40
546;DHT22;259;53.304;9.816;2022-12-18T07:05:10;13.60;51.80
546;DHT22;259;53.304;9.816;2022-12-18T07:07:36;13.70;51.10
546;DHT22;259;53.304;9.816;2022-12-18T07:10:02;14.00;51.20
546;DHT22;259;53.304;9.816;2022-12-18T07:12:28;13.80;50.80
546;DHT22;259;53.304;9.816;2022-12-18T07:14:53;13.70;50.70
546;DHT22;259;53.304;9.816;2022-12-18T07:17:19;13.70;50.80
546;DHT22;259;53.304;9.816;2022-12-18T07:19:44;13.60;50.80
546;DHT22;259;53.304;9.816;2022-12-18T07:22:11;13.50;50.80
546;DHT22;259;53.304;9.816;2022-12-18T07:24:37;13.60;51.00
546;DHT22;259;53.304;9.816;2022-12-18T07:27:02;13.30;50.90
546;DHT22;259;53.304;9.816;2022-12-18T07:29:28;13.30;51.10
546;DHT22;259;53.304;9.816;2022-12-18T07:31:53;13.20;51.30
546;DHT22;259;53.304;9.816;2022-12-18T07:34:19;12.90;51.30
546;DHT22;259;53.304;9.816;2022-12-18T07:36:45;12.70;51.40
546;DHT22;259;53.304;9.816;2022-12-18T07:39:11;12.80;51.80
546;DHT22;259;53.304;9.816;2022-12-18T07:41:37;12.50;51.70
546;DHT22;259;53.304;9.816;2022-12-18T07:44:02;12.50;52.10
546;DHT22;259;53.304;9.816;2022-12-18T07:46:28;12.20;52.00
546;DHT22;259;53.304;9.816;2022-12-18T07:48:54;11.90;52.10
546;DHT22;259;53.304;9.816;2022-12-18T07:51:19;11.90;52.40
546;DHT22;259;53.304;9.816;2022-12-18T07:53:45;11.70;52.50
546;DHT22;259;53.304;9.816;2022-12-18T07:56:12;11.60;52.60
546;DHT22;259;53.304;9.816;2022-12-18T07:58:37;11.60;52.80
546;DHT22;259;53.304;9.816;2022-12-18T08:01:08;11.70;53.10
546;DHT22;259;53.304;9.816;2022-12-18T08:03:39;11.30;53.00
546;DHT22;259;53.304;9.816;2022-12-18T08:06:10;11.20;53.00
546;DHT22;259;53.304;9.816;2022-12-18T08:08:36;11.00;53.10
546;DHT22;259;53.304;9.816;2022-12-18T08:11:02;10.90;53.20
546;DHT22;259;53.304;9.816;2022-12-18T08:13:28;10.80;53.40
546;DHT22;259;53.304;9.816;2022-12-18T08:15:59;10.70;53.40
546;DHT22;259;53.304;9.816;2022-12-18T08:18:25;10.80;53.60
546;DHT22;259;53.304;9.816;2022-12-18T08:20:51;10.50;53.60
546;DHT22;259;53.304;9.816;2022-12-18T08:23:16;10.50;53.80
546;DHT22;259;53.304;9.816;2022-12-18T08:25:42;10.50;54.00
546;DHT22;259;53.304;9.816;2022-12-18T08:28:07;10.30;54.10
546;DHT22;259;53.304;9.816;2022-12-18T08:30:33;10.20;54.10
546;DHT22;259;53.304;9.816;2022-12-18T08:32:59;10.10;54.10
546;DHT22;259;53.304;9.816;2022-12-18T08:35:24;10.00;54.20
546;DHT22;259;53.304;9.816;2022-12-18T08:37:50;10.20;54.40
546;DHT22;259;53.304;9.816;2022-12-18T08:40:15;9.90;55.20
546;DHT22;259;53.304;9.816;2022-12-18T08:42:41;9.90;55.20
546;DHT22;259;53.304;9.816;2022-12-18T08:45:25;9.80;55.20
546;DHT22;259;53.304;9.816;2022-12-18T08:47:51;9.90;55.10
546;DHT22;259;53.304;9.816;2022-12-18T08:50:17;10.00;54.20
546;DHT22;259;53.304;9.816;2022-12-18T08:52:43;10.00;54.10
546;DHT22;259;53.304;9.816;2022-12-18T08:55:09;10.10;54.10
546;DHT22;259;53.304;9.816;2022-12-18T08:57:36;10.00;54.10
546;DHT22;259;53.304;9.816;2022-12-18T09:00:02;10.00;54.10
546;DHT22;259;53.304;9.816;2022-12-18T09:02:28;9.90;55.00
546;DHT22;259;53.304;9.816;2022-12-18T09:04:53;9.90;55.00
546;DHT22;259;53.304;9.816;2022-12-18T09:07:19;9.90;55.10
546;DHT22;259;53.304;9.816;2022-12-18T09:09:44;9.80;55.70
546;DHT22;259;53.304;9.816;2022-12-18T09:12:10;9.70;55.30
546;DHT22;259;53.304;9.816;2022-12-18T09:14:36;9.80;55.50
546;DHT22;259;53.304;9.816;2022-12-18T09:17:01;9.60;55.60
546;DHT22;259;53.304;9.816;2022-12-18T09:19:27;9.50;55.70
546;DHT22;259;53.304;9.816;2022-12-18T09:21:52;9.40;55.70
546;DHT22;259;53.304;9.816;2022-12-18T09:24:18;9.50;55.90
546;DHT22;259;53.304;9.816;2022-12-18T09:26:44;9.40;56.00
546;DHT22;259;53.304;9.816;2022-12-18T09:29:09;9.30;56.10
546;DHT22;259;53.304;9.816;2022-12-18T09:31:36;9.30;56.30
546;DHT22;259;53.304;9.816;2022-12-18T09:34:02;9.40;56.50
546;DHT22;259;53.304;9.816;2022-12-18T09:36:31;9.20;56.30
546;DHT22;259;53.304;9.816;2022-12-18T09:38:56;9.10;56.40
546;DHT22;259;53.304;9.816;2022-12-18T09:46:44;9.00;56.70
546;DHT22;259;53.304;9.816;2022-12-18T09:49:14;9.00;56.80
546;DHT22;259;53.304;9.816;2022-12-18T09:55:50;8.90;56.90
546;DHT22;259;53.304;9.816;2022-12-18T09:57:56;8.80;56.90
546;DHT22;259;53.304;9.816;2022-12-18T10:00:24;8.80;57.00
546;DHT22;259;53.304;9.816;2022-12-18T10:02:51;8.90;57.10
546;DHT22;259;53.304;9.816;2022-12-18T10:13:15;8.60;57.20
546;DHT22;259;53.304;9.816;2022-12-18T10:21:40;8.50;57.30
546;DHT22;259;53.304;9.816;2022-12-18T10:24:35;8.60;58.00
546;DHT22;259;53.304;9.816;2022-12-18T10:27:15;8.40;57.30
546;DHT22;259;53.304;9.816;2022-12-18T10:29:45;8.40;57.60
546;DHT22;259;53.304;9.816;2022-12-18T10:32:23;8.30;57.40
546;DHT22;259;53.304;9.816;2022-12-18T10:34:53;8.60;57.70
546;DHT22;259;53.304;9.816;2022-12-18T10:37:22;8.30;57.50
546;DHT22;259;53.304;9.816;2022-12-18T10:40:13;8.20;57.50
546;DHT22;259;53.304;9.816;2022-12-18T10:42:39;8.20;57.50
546;DHT22;259;53.304;9.816;2022-12-18T10:45:15;8.20;57.50
546;DHT22;259;53.304;9.816;2022-12-18T10:47:47;8.20;57.60
546;DHT22;259;53.304;9.816;2022-12-18T10:50:34;8.20;57.60
546;DHT22;259;53.304;9.816;2022-12-18T10:53:02;8.30;57.70
546;DHT22;259;53.304;9.816;2022-12-18T10:55:38;8.00;57.50
546;DHT22;259;53.304;9.816;2022-12-18T10:58:27;8.20;57.70
546;DHT22;259;53.304;9.816;2022-12-18T11:01:15;8.10;57.60
546;DHT22;259;53.304;9.816;2022-12-18T11:06:19;8.00;57.60
546;DHT22;259;53.304;9.816;2022-12-18T11:11:51;8.00;57.60
546;DHT22;259;53.304;9.816;2022-12-18T11:14:28;8.00;57.60
546;DHT22;259;53.304;9.816;2022-12-18T11:16:55;7.90;57.60
546;DHT22;259;53.304;9.816;2022-12-18T11:19:33;7.90;57.60
546;DHT22;259;53.304;9.816;2022-12-18T11:22:01;7.90;57.70
546;DHT22;259;53.304;9.816;2022-12-18T11:24:33;7.90;57.70
546;DHT22;259;53.304;9.816;2022-12-18T11:27:04;8.00;57.80
546;DHT22;259;53.304;9.816;2022-12-18T11:29:37;7.90;57.70
546;DHT22;259;53.304;9.816;2022-12-18T11:32:27;7.80;57.80
546;DHT22;259;53.304;9.816;2022-12-18T11:34:59;7.80;57.80
546;DHT22;259;53.304;9.816;2022-12-18T11:37:27;7.90;57.80
546;DHT22;259;53.304;9.816;2022-12-18T11:40:01;7.80;57.90
546;DHT22;259;53.304;9.816;2022-12-18T11:42:32;7.80;57.90
546;DHT22;259;53.304;9.816;2022-12-18T11:47:39;7.70;57.80
546;DHT22;259;53.304;9.816;2022-12-18T11:50:38;7.90;58.00
546;DHT22;259;53.304;9.816;2022-12-18T11:53:10;7.70;57.90
546;DHT22;259;53.304;9.816;2022-12-18T12:06:48;7.70;58.00
546;DHT22;259;53.304;9.816;2022-12-18T12:20:24;7.60;57.90
546;DHT22;259;53.304;9.816;2022-12-18T12:23:20;7.60;58.00
546;DHT22;259;53.304;9.816;2022-12-18T12:34:16;7.50;58.00
546;DHT22;259;53.304;9.816;2022-12-18T12:39:26;7.50;58.00
546;DHT22;259;53.304;9.816;2022-12-18T12:41:52;7.50;58.10
546;DHT22;259;53.304;9.816;2022-12-18T12:44:44;7.50;58.70
546;DHT22;259;53.304;9.816;2022-12-18T12:47:32;7.50;58.20
546;DHT22;259;53.304;9.816;2022-12-18T12:50:01;7.50;58.20
546;DHT22;259;53.304;9.816;2022-12-18T12:52:39;7.50;58.30
546;DHT22;259;53.304;9.816;2022-12-18T12:55:18;7.50;58.20
546;DHT22;259;53.304;9.816;2022-12-18T13:07:06;7.50;58.30
546;DHT22;259;53.304;9.816;2022-12-18T13:09:32;7.40;58.20
546;DHT22;259;53.304;9.816;2022-12-18T13:12:03;7.40;58.20
546;DHT22;259;53.304;9.816;2022-12-18T13:14:48;7.40;58.20
546;DHT22;259;53.304;9.816;2022-12-18T13:19:40;7.40;58.30
546;DHT22;259;53.304;9.816;2022-12-18T13:22:25;7.30;58.20
546;DHT22;259;53.304;9.816;2022-12-18T13:24:53;7.30;58.30
546;DHT22;259;53.304;9.816;2022-12-18T13:27:51;7.30;58.30
546;DHT22;259;53.304;9.816;2022-12-18T13:36:09;7.30;58.30
546;DHT22;259;53.304;9.816;2022-12-18T13:38:38;7.30;58.30
546;DHT22;259;53.304;9.816;2022-12-18T13:41:26;7.30;58.30
546;DHT22;259;53.304;9.816;2022-12-18T13:43:56;7.30;58.30
546;DHT22;259;53.304;9.816;2022-12-18T13:46:46;7.30;58.30
546;DHT22;259;53.304;9.816;2022-12-18T13:51:44;7.20;58.30
546;DHT22;259;53.304;9.816;2022-12-18T13:54:19;7.20;58.30
546;DHT22;259;53.304;9.816;2022-12-18T13:56:46;7.20;58.30
546;DHT22;259;53.304;9.816;2022-12-18T13:59:16;7.20;58.30
546;DHT22;259;53.304;9.816;2022-12-18T14:01:44;7.20;58.30
546;DHT22;259;53.304;9.816;2022-12-18T14:04:19;7.20;58.90
546;DHT22;259;53.304;9.816;2022-12-18T14:06:46;7.20;58.40
546;DHT22;259;53.304;9.816;2022-12-18T14:09:28;7.10;58.30
546;DHT22;259;53.304;9.816;2022-12-18T14:11:55;7.20;58.40
546;DHT22;259;53.304;9.816;2022-12-18T14:14:42;7.10;58.30
546;DHT22;259;53.304;9.816;2022-12-18T14:17:12;7.10;58.30
546;DHT22;259;53.304;9.816;2022-12-18T14:19:42;7.10;58.30
546;DHT22;259;53.304;9.816;2022-12-18T14:22:16;7.10;58.40
546;DHT22;259;53.304;9.816;2022-12-18T14:24:46;7.10;58.30
546;DHT22;259;53.304;9.816;2022-12-18T14:27:23;7.10;58.30
546;DHT22;259;53.304;9.816;2022-12-18T14:29:50;7.00;58.30
546;DHT22;259;53.304;9.816;2022-12-18T14:32:18;7.00;58.30
546;DHT22;259;53.304;9.816;2022-12-18T14:34:49;7.00;58.40
546;DHT22;259;53.304;9.816;2022-12-18T14:37:17;7.00;58.40
546;DHT22;259;53.304;9.816;2022-12-18T14:40:00;7.00;58.40
546;DHT22;259;53.304;9.816;2022-12-18T14:42:28;7.00;58.40
546;DHT22;259;53.304;9.816;2022-12-18T14:47:58;7.00;58.40
546;DHT22;259;53.304;9.816;2022-12-18T14:50:23;7.50;58.60
546;DHT22;259;53.304;9.816;2022-12-18T14:52:52;7.60;58.40
546;DHT22;259;53.304;9.816;2022-12-18T14:55:21;8.00;58.20
546;DHT22;259;53.304;9.816;2022-12-18T14:57:53;8.30;57.90
546;DHT22;259;53.304;9.816;2022-12-18T15:00:22;8.70;57.60
546;DHT22;259;53.304;9.816;2022-12-18T15:02:50;9.20;57.10
546;DHT22;259;53.304;9.816;2022-12-18T15:05:30;9.60;56.60
546;DHT22;259;53.304;9.816;2022-12-18T15:07:58;10.10;55.40
546;DHT22;259;53.304;9.816;2022-12-18T15:10:26;10.80;55.10
546;DHT22;259;53.304;9.816;2022-12-18T15:18:32;11.50;54.00
546;DHT22;259;53.304;9.816;2022-12-18T15:21:00;11.80;53.70
546;DHT22;259;53.304;9.816;2022-12-18T15:23:51;12.10;53.50
546;DHT22;259;53.304;9.816;2022-12-18T15:26:20;12.30;53.30
546;DHT22;259;53.304;9.816;2022-12-18T15:28:48;12.60;53.10
546;DHT22;259;53.304;9.816;2022-12-18T15:36:17;13.30;52.70
546;DHT22;259;53.304;9.816;2022-12-18T15:38:50;13.40;52.50
546;DHT22;259;53.304;9.816;2022-12-18T15:41:18;13.40;52.20
546;DHT22;259;53.304;9.816;2022-12-18T15:43:45;13.60;52.10
546;DHT22;259;53.304;9.816;2022-12-18T15:46:16;13.80;52.00
546;DHT22;259;53.304;9.816;2022-12-18T15:48:44;13.90;51.80
546;DHT22;259;53.304;9.816;2022-12-18T15:51:14;13.90;51.60
546;DHT22;259;53.304;9.816;2022-12-18T15:53:42;13.90;51.60
546;DHT22;259;53.304;9.816;2022-12-18T15:56:12;13.80;51.40
546;DHT22;259;53.304;9.816;2022-12-18T15:58:57;13.80;51.50
546;DHT22;259;53.304;9.816;2022-12-18T16:01:30;13.90;51.60
546;DHT22;259;53.304;9.816;2022-12-18T16:03:56;13.80;51.70
546;DHT22;259;53.304;9.816;2022-12-18T16:06:25;13.50;51.60
546;DHT22;259;53.304;9.816;2022-12-18T16:08:51;13.40;51.60
546;DHT22;259;53.304;9.816;2022-12-18T16:11:22;13.20;51.70
546;DHT22;259;53.304;9.816;2022-12-18T16:14:05;13.20;51.90
546;DHT22;259;53.304;9.816;2022-12-18T16:16:30;13.20;52.70
546;DHT22;259;53.304;9.816;2022-12-18T16:18:56;12.90;52.20
546;DHT22;259;53.304;9.816;2022-12-18T16:21:21;12.80;52.40
546;DHT22;259;53.304;9.816;2022-12-18T16:23:47;12.60;52.50
546;DHT22;259;53.304;9.816;2022-12-18T16:26:16;12.50;52.60
546;DHT22;259;53.304;9.816;2022-12-18T16:28:41;12.40;52.90
546;DHT22;259;53.304;9.816;2022-12-18T16:31:07;12.20;53.00
546;DHT22;259;53.304;9.816;2022-12-18T16:33:33;12.10;53.20
546;DHT22;259;53.304;9.816;2022-12-18T16:36:06;11.90;53.20
546;DHT22;259;53.304;9.816;2022-12-18T16:38:36;11.80;53.40
546;DHT22;259;53.304;9.816;2022-12-18T16:41:02;11.70;53.50
546;DHT22;259;53.304;9.816;2022-12-18T16:43:50;11.50;53.50
546;DHT22;259;53.304;9.816;2022-12-18T16:46:15;11.40;53.70
546;DHT22;259;53.304;9.816;2022-12-18T16:48:41;11.40;53.90
546;DHT22;259;53.304;9.816;2022-12-18T16:51:06;11.30;53.90
546;DHT22;259;53.304;9.816;2022-12-18T16:53:35;11.40;54.20
546;DHT22;259;53.304;9.816;2022-12-18T16:56:00;11.00;54.10
546;DHT22;259;53.304;9.816;2022-12-18T16:58:29;11.00;54.20
546;DHT22;259;53.304;9.816;2022-12-18T17:00:54;11.10;54.40
546;DHT22;259;53.304;9.816;2022-12-18T17:03:20;10.80;54.30
546;DHT22;259;53.304;9.816;2022-12-18T17:05:48;10.70;54.90
546;DHT22;259;53.304;9.816;2022-12-18T17:08:16;10.70;54.60
546;DHT22;259;53.304;9.816;2022-12-18T17:10:45;10.50;54.60
546;DHT22;259;53.304;9.816;2022-12-18T17:13:10;10.40;54.60
546;DHT22;259;53.304;9.816;2022-12-18T17:15:36;10.40;54.80
546;DHT22;259;53.304;9.816;2022-12-18T17:18:02;10.70;55.20
546;DHT22;259;53.304;9.816;2022-12-18T17:20:29;10.30;55.00
546;DHT22;259;53.304;9.816;2022-12-18T17:22:58;10.20;55.20
546;DHT22;259;53.304;9.816;2022-12-18T17:25:24;10.10;55.30
546;DHT22;259;53.304;9.816;2022-12-18T17:27:50;10.10;55.50
546;DHT22;259;53.304;9.816;2022-12-18T17:30:16;10.10;55.70
546;DHT22;259;53.304;9.816;2022-12-18T17:32:41;10.00;55.80
546;DHT22;259;53.304;9.816;2022-12-18T17:35:07;9.90;56.70
546;DHT22;259;53.304;9.816;2022-12-18T17:37:33;9.90;56.80
546;DHT22;259;53.304;9.816;2022-12-18T17:39:58;9.80;56.90
546;DHT22;259;53.304;9.816;2022-12-18T17:42:24;9.90;57.10
546;DHT22;259;53.304;9.816;2022-12-18T17:44:50;9.70;57.00
546;DHT22;259;53.304;9.816;2022-12-18T17:47:17;9.60;57.00
546;DHT22;259;53.304;9.816;2022-12-18T17:49:42;9.60;57.00
546;DHT22;259;53.304;9.816;2022-12-18T17:52:09;9.50;57.10
546;DHT22;259;53.304;9.816;2022-12-18T17:54:35;9.70;57.30
546;DHT22;259;53.304;9.816;2022-12-18T17:57:04;9.50;57.20
546;DHT22;259;53.304;9.816;2022-12-18T17:59:32;9.40;57.20
546;DHT22;259;53.304;9.816;2022-12-18T18:01:57;9.40;57.30
546;DHT22;259;53.304;9.816;2022-12-18T18:04:23;9.50;57.40
546;DHT22;259;53.304;9.816;2022-12-18T18:06:49;9.30;57.40
546;DHT22;259;53.304;9.816;2022-12-18T18:09:15;9.30;57.40
546;DHT22;259;53.304;9.816;2022-12-18T18:11:40;9.20;57.40
546;DHT22;259;53.304;9.816;2022-12-18T18:14:29;9.20;57.50
546;DHT22;259;53.304;9.816;2022-12-18T18:16:55;9.00;57.40
546;DHT22;259;53.304;9.816;2022-12-18T18:19:22;9.10;57.50
546;DHT22;259;53.304;9.816;2022-12-18T18:21:51;9.10;57.60
546;DHT22;259;53.304;9.816;2022-12-18T18:24:22;9.10;57.60
546;DHT22;259;53.304;9.816;2022-12-18T18:26:48;9.00;57.60
546;DHT22;259;53.304;9.816;2022-12-18T18:29:17;9.00;57.70
546;DHT22;259;53.304;9.816;2022-12-18T18:31:43;9.00;57.70
546;DHT22;259;53.304;9.816;2022-12-18T18:34:20;8.90;57.70
546;DHT22;259;53.304;9.816;2022-12-18T18:36:46;8.90;57.70
546;DHT22;259;53.304;9.816;2022-12-18T18:39:13;9.10;57.80
546;DHT22;259;53.304;9.816;2022-12-18T18:41:39;9.00;57.80
546;DHT22;259;53.304;9.816;2022-12-18T18:44:05;9.10;57.90
546;DHT22;259;53.304;9.816;2022-12-18T18:46:31;9.00;57.90
546;DHT22;259;53.304;9.816;2022-12-18T18:48:57;8.80;57.70
546;DHT22;259;53.304;9.816;2022-12-18T18:51:23;8.80;57.80
546;DHT22;259;53.304;9.816;2022-12-18T18:53:50;8.70;57.70
546;DHT22;259;53.304;9.816;2022-12-18T18:56:19;8.70;58.20
546;DHT22;259;53.304;9.816;2022-12-18T18:58:45;8.50;57.70